THA206 VTSP-VTBS
Flight info
| Callsign | THA206 |
|---|---|
| Flight time | 1h 3m |
| Altitude | 35000 |
| Route | EMRIT1A EMRIT Y99 NONEL Y98 LEBIM LEBIM1C |
| Aircraft | B772/H-SDE2E3FGHIJ5LORVWXY/LB1D1 |
Departure
| Time | 2026-05-05 05:50 |
|---|---|
| Airport | Phuket International Airport (VTSP) |
Arrival
| Time | 2026-05-05 06:54 |
|---|---|
| Airport | Suvarnabhumi Airport (VTBS) |
| Time | Latitude | Longitude | Altitude | Speed | Heading |
|---|---|---|---|---|---|
| 2026-05-05 05:38 | 8.10905 | 98.30547 | 32 ft | 0 kts | 105° |
| 2026-05-05 05:43 | 8.10906 | 98.30542 | 32 ft | 4 kts | 105° |
| 2026-05-05 05:43 | 8.10913 | 98.30516 | 30 ft | 4 kts | 104° |
| 2026-05-05 05:43 | 8.10919 | 98.30489 | 32 ft | 4 kts | 96° |
| 2026-05-05 05:44 | 8.10918 | 98.30465 | 32 ft | 4 kts | 52° |
| 2026-05-05 05:44 | 8.10900 | 98.30455 | 31 ft | 4 kts | 14° |
| 2026-05-05 05:44 | 8.10882 | 98.30450 | 31 ft | 0 kts | 14° |
| 2026-05-05 05:46 | 8.10883 | 98.30451 | 31 ft | 1 kts | 14° |
| 2026-05-05 05:47 | 8.10904 | 98.30456 | 31 ft | 5 kts | 14° |
| 2026-05-05 05:47 | 8.10950 | 98.30468 | 32 ft | 9 kts | 14° |
| 2026-05-05 05:47 | 8.11017 | 98.30481 | 32 ft | 8 kts | 352° |
| 2026-05-05 05:47 | 8.11038 | 98.30428 | 31 ft | 10 kts | 272° |
| 2026-05-05 05:48 | 8.11046 | 98.30371 | 30 ft | 7 kts | 307° |
| 2026-05-05 05:48 | 8.11097 | 98.30350 | 31 ft | 8 kts | 353° |
| 2026-05-05 05:48 | 8.11164 | 98.30345 | 31 ft | 10 kts | 356° |
| 2026-05-05 05:48 | 8.11200 | 98.30397 | 31 ft | 11 kts | 82° |
| 2026-05-05 05:49 | 8.11204 | 98.30428 | 31 ft | 0 kts | 84° |
| 2026-05-05 05:49 | 8.11229 | 98.30694 | 33 ft | 80 kts | 84° |
| 2026-05-05 05:49 | 8.11306 | 98.31518 | 42 ft | 153 kts | 84° |
| 2026-05-05 05:50 | 8.11423 | 98.32731 | 502 ft | 183 kts | 85° |
| 2026-05-05 05:50 | 8.11548 | 98.34091 | 1215 ft | 205 kts | 85° |
| 2026-05-05 05:50 | 8.11697 | 98.35513 | 2208 ft | 203 kts | 85° |
| 2026-05-05 05:50 | 8.11840 | 98.37022 | 2527 ft | 229 kts | 85° |
| 2026-05-05 05:51 | 8.11989 | 98.38648 | 3127 ft | 238 kts | 86° |
| 2026-05-05 05:51 | 8.12143 | 98.40346 | 3743 ft | 249 kts | 85° |
| 2026-05-05 05:51 | 8.12421 | 98.42073 | 4301 ft | 259 kts | 69° |
| 2026-05-05 05:51 | 8.13525 | 98.43543 | 5026 ft | 264 kts | 46° |
| 2026-05-05 05:52 | 8.14865 | 98.44819 | 5712 ft | 271 kts | 46° |
| 2026-05-05 05:52 | 8.16228 | 98.46135 | 6612 ft | 271 kts | 46° |
| 2026-05-05 05:52 | 8.17589 | 98.47459 | 7434 ft | 272 kts | 46° |
| 2026-05-05 05:52 | 8.18955 | 98.48798 | 8229 ft | 275 kts | 47° |
| 2026-05-05 05:53 | 8.20329 | 98.50158 | 8991 ft | 278 kts | 46° |
| 2026-05-05 05:53 | 8.21719 | 98.51541 | 9720 ft | 283 kts | 46° |
| 2026-05-05 05:53 | 8.23133 | 98.52949 | 10354 ft | 291 kts | 46° |
| 2026-05-05 05:53 | 8.24632 | 98.54451 | 10568 ft | 318 kts | 46° |
| 2026-05-05 05:54 | 8.26245 | 98.56075 | 11043 ft | 335 kts | 46° |
| 2026-05-05 05:54 | 8.27918 | 98.57758 | 11815 ft | 344 kts | 46° |
| 2026-05-05 05:54 | 8.29625 | 98.59479 | 12786 ft | 348 kts | 46° |
| 2026-05-05 05:54 | 8.31352 | 98.61218 | 13757 ft | 353 kts | 46° |
| 2026-05-05 05:55 | 8.33104 | 98.62985 | 14600 ft | 359 kts | 46° |
| 2026-05-05 05:55 | 8.34884 | 98.64781 | 15451 ft | 365 kts | 46° |
| 2026-05-05 05:55 | 8.36694 | 98.66608 | 16351 ft | 370 kts | 46° |
| 2026-05-05 05:55 | 8.38529 | 98.68460 | 17223 ft | 376 kts | 46° |
| 2026-05-05 05:56 | 8.40371 | 98.70319 | 18116 ft | 381 kts | 46° |
| 2026-05-05 05:56 | 8.42259 | 98.72227 | 18886 ft | 387 kts | 46° |
| 2026-05-05 05:56 | 8.44174 | 98.74162 | 19688 ft | 391 kts | 46° |
| 2026-05-05 05:56 | 8.46108 | 98.76117 | 20487 ft | 396 kts | 46° |
| 2026-05-05 05:57 | 8.48068 | 98.78098 | 21286 ft | 401 kts | 46° |
| 2026-05-05 05:57 | 8.50056 | 98.80107 | 22094 ft | 406 kts | 46° |
| 2026-05-05 05:57 | 8.52070 | 98.82142 | 22904 ft | 411 kts | 46° |
| 2026-05-05 05:57 | 8.54098 | 98.84193 | 23642 ft | 416 kts | 46° |
| 2026-05-05 05:58 | 8.56161 | 98.86280 | 24301 ft | 420 kts | 46° |
| 2026-05-05 05:58 | 8.58232 | 98.88375 | 24981 ft | 424 kts | 45° |
| 2026-05-05 05:58 | 8.60329 | 98.90496 | 25652 ft | 428 kts | 46° |
| 2026-05-05 05:58 | 8.62443 | 98.92635 | 26291 ft | 433 kts | 45° |
| 2026-05-05 05:59 | 8.64585 | 98.94802 | 26891 ft | 438 kts | 45° |
| 2026-05-05 05:59 | 8.66723 | 98.96966 | 27479 ft | 442 kts | 45° |
| 2026-05-05 05:59 | 8.68907 | 98.99177 | 28074 ft | 446 kts | 45° |
| 2026-05-05 05:59 | 8.71110 | 99.01408 | 28647 ft | 450 kts | 45° |
| 2026-05-05 06:00 | 8.73334 | 99.03661 | 29178 ft | 455 kts | 45° |
| 2026-05-05 06:00 | 8.75578 | 99.05934 | 29729 ft | 459 kts | 45° |
| 2026-05-05 06:00 | 8.77844 | 99.08229 | 30184 ft | 463 kts | 45° |
| 2026-05-05 06:00 | 8.80128 | 99.10543 | 30623 ft | 466 kts | 45° |
| 2026-05-05 06:01 | 8.82420 | 99.12866 | 31093 ft | 468 kts | 45° |
| 2026-05-05 06:01 | 8.84726 | 99.15202 | 31594 ft | 468 kts | 45° |
| 2026-05-05 06:01 | 8.87025 | 99.17533 | 32130 ft | 468 kts | 45° |
| 2026-05-05 06:01 | 8.89323 | 99.19863 | 32665 ft | 468 kts | 45° |
| 2026-05-05 06:02 | 8.91595 | 99.22169 | 33117 ft | 469 kts | 45° |
| 2026-05-05 06:02 | 8.93899 | 99.24509 | 33567 ft | 469 kts | 45° |
| 2026-05-05 06:02 | 8.96206 | 99.26849 | 34065 ft | 468 kts | 45° |
| 2026-05-05 06:02 | 8.98497 | 99.29174 | 34576 ft | 464 kts | 45° |
| 2026-05-05 06:03 | 9.00781 | 99.31493 | 34896 ft | 466 kts | 45° |
| 2026-05-05 06:03 | 9.03096 | 99.33809 | 34865 ft | 466 kts | 41° |
| 2026-05-05 06:03 | 9.05726 | 99.35700 | 34888 ft | 465 kts | 28° |
| 2026-05-05 06:03 | 9.08704 | 99.36961 | 34892 ft | 464 kts | 17° |
| 2026-05-05 06:04 | 9.14016 | 99.37724 | 34882 ft | 465 kts | 1° |
| 2026-05-05 06:04 | 9.20482 | 99.37903 | 34886 ft | 465 kts | 4° |
| 2026-05-05 06:05 | 9.26857 | 99.38892 | 34879 ft | 464 kts | 15° |
| 2026-05-05 06:05 | 9.33030 | 99.40843 | 34890 ft | 464 kts | 18° |
| 2026-05-05 06:06 | 9.39195 | 99.42800 | 34877 ft | 465 kts | 17° |
| 2026-05-05 06:06 | 9.45392 | 99.44723 | 34871 ft | 466 kts | 17° |
| 2026-05-05 06:07 | 9.51594 | 99.46650 | 34873 ft | 466 kts | 17° |
| 2026-05-05 06:07 | 9.57800 | 99.48582 | 34883 ft | 467 kts | 17° |
| 2026-05-05 06:08 | 9.64026 | 99.50519 | 34884 ft | 468 kts | 17° |
| 2026-05-05 06:08 | 9.70220 | 99.52445 | 34869 ft | 468 kts | 17° |
| 2026-05-05 06:09 | 9.76457 | 99.54389 | 34881 ft | 469 kts | 17° |
| 2026-05-05 06:09 | 9.82717 | 99.56342 | 34882 ft | 470 kts | 17° |
| 2026-05-05 06:10 | 9.88975 | 99.58293 | 34883 ft | 469 kts | 17° |
| 2026-05-05 06:10 | 9.95180 | 99.60227 | 34881 ft | 469 kts | 17° |
| 2026-05-05 06:11 | 10.01425 | 99.62175 | 34871 ft | 469 kts | 17° |
| 2026-05-05 06:11 | 10.07662 | 99.64121 | 34872 ft | 470 kts | 17° |
| 2026-05-05 06:12 | 10.13930 | 99.66079 | 34889 ft | 473 kts | 17° |
| 2026-05-05 06:12 | 10.20254 | 99.68054 | 34887 ft | 476 kts | 17° |
| 2026-05-05 06:13 | 10.26591 | 99.70037 | 34887 ft | 477 kts | 17° |
| 2026-05-05 06:13 | 10.32937 | 99.72020 | 34877 ft | 477 kts | 17° |
| 2026-05-05 06:14 | 10.39275 | 99.74002 | 34874 ft | 476 kts | 17° |
| 2026-05-05 06:14 | 10.45565 | 99.75972 | 34892 ft | 475 kts | 17° |
| 2026-05-05 06:15 | 10.51888 | 99.77951 | 34880 ft | 475 kts | 16° |
| 2026-05-05 06:15 | 10.58215 | 99.79932 | 34893 ft | 475 kts | 17° |
| 2026-05-05 06:16 | 10.64543 | 99.81914 | 34884 ft | 476 kts | 16° |
| 2026-05-05 06:16 | 10.70867 | 99.83897 | 34874 ft | 476 kts | 17° |
| 2026-05-05 06:17 | 10.77202 | 99.85884 | 34890 ft | 477 kts | 17° |
| 2026-05-05 06:17 | 10.83553 | 99.87878 | 34879 ft | 478 kts | 16° |
| 2026-05-05 06:18 | 10.89813 | 99.90152 | 34881 ft | 479 kts | 24° |
| 2026-05-05 06:18 | 10.95688 | 99.93391 | 34877 ft | 480 kts | 28° |
| 2026-05-05 06:19 | 11.01515 | 99.96731 | 34880 ft | 481 kts | 28° |
| 2026-05-05 06:19 | 11.07356 | 100.00043 | 34879 ft | 481 kts | 28° |
| 2026-05-05 06:20 | 11.13211 | 100.03338 | 34870 ft | 481 kts | 28° |
| 2026-05-05 06:20 | 11.19033 | 100.06609 | 34875 ft | 481 kts | 28° |
| 2026-05-05 06:21 | 11.24890 | 100.09900 | 34880 ft | 481 kts | 28° |
| 2026-05-05 06:21 | 11.30747 | 100.13197 | 34878 ft | 481 kts | 28° |
| 2026-05-05 06:22 | 11.36614 | 100.16503 | 34879 ft | 482 kts | 28° |
| 2026-05-05 06:22 | 11.42484 | 100.19810 | 34876 ft | 482 kts | 28° |
| 2026-05-05 06:23 | 11.48355 | 100.23121 | 34881 ft | 482 kts | 28° |
| 2026-05-05 06:23 | 11.54226 | 100.26434 | 34874 ft | 482 kts | 28° |
| 2026-05-05 06:24 | 11.60091 | 100.29742 | 34882 ft | 482 kts | 28° |
| 2026-05-05 06:24 | 11.65908 | 100.33037 | 34874 ft | 480 kts | 28° |
| 2026-05-05 06:25 | 11.71749 | 100.36345 | 34878 ft | 481 kts | 28° |
| 2026-05-05 06:25 | 11.77603 | 100.39665 | 34879 ft | 481 kts | 28° |
| 2026-05-05 06:26 | 11.83552 | 100.42815 | 34873 ft | 482 kts | 20° |
| 2026-05-05 06:26 | 11.90034 | 100.44390 | 34880 ft | 478 kts | 4° |
| 2026-05-05 06:27 | 11.99993 | 100.44633 | 34886 ft | 477 kts | 359° |
| 2026-05-05 06:28 | 12.06624 | 100.44738 | 34873 ft | 477 kts | 0° |
| 2026-05-05 06:28 | 12.13264 | 100.44888 | 34873 ft | 476 kts | 0° |
| 2026-05-05 06:29 | 12.19908 | 100.45052 | 34391 ft | 482 kts | 0° |
| 2026-05-05 06:29 | 12.23260 | 100.45139 | 33868 ft | 480 kts | 0° |
| 2026-05-05 06:29 | 12.26591 | 100.45225 | 33243 ft | 477 kts | 0° |
| 2026-05-05 06:29 | 12.29847 | 100.45309 | 32697 ft | 473 kts | 0° |
| 2026-05-05 06:30 | 12.33127 | 100.45393 | 32139 ft | 469 kts | 0° |
| 2026-05-05 06:30 | 12.36378 | 100.45476 | 31582 ft | 466 kts | 0° |
| 2026-05-05 06:30 | 12.39612 | 100.45558 | 31044 ft | 463 kts | 0° |
| 2026-05-05 06:30 | 12.42826 | 100.45639 | 30487 ft | 461 kts | 0° |
| 2026-05-05 06:31 | 12.46025 | 100.45720 | 29923 ft | 458 kts | 0° |
| 2026-05-05 06:31 | 12.49198 | 100.45800 | 29272 ft | 455 kts | 1° |
| 2026-05-05 06:31 | 12.52351 | 100.45881 | 28641 ft | 451 kts | 1° |
| 2026-05-05 06:31 | 12.55471 | 100.45959 | 28035 ft | 446 kts | 1° |
| 2026-05-05 06:32 | 12.58557 | 100.46036 | 27452 ft | 441 kts | 0° |
| 2026-05-05 06:32 | 12.61613 | 100.46112 | 26873 ft | 437 kts | 0° |
| 2026-05-05 06:32 | 12.64643 | 100.46188 | 26313 ft | 433 kts | 1° |
| 2026-05-05 06:32 | 12.67648 | 100.46264 | 25746 ft | 429 kts | 1° |
| 2026-05-05 06:33 | 12.70624 | 100.46339 | 25177 ft | 427 kts | 1° |
| 2026-05-05 06:33 | 12.73583 | 100.46412 | 24638 ft | 424 kts | 1° |
| 2026-05-05 06:33 | 12.76521 | 100.46486 | 24069 ft | 421 kts | 1° |
| 2026-05-05 06:33 | 12.79414 | 100.46559 | 23527 ft | 419 kts | 1° |
| 2026-05-05 06:34 | 12.82279 | 100.46632 | 22893 ft | 416 kts | 1° |
| 2026-05-05 06:34 | 12.85196 | 100.46706 | 22321 ft | 412 kts | 1° |
| 2026-05-05 06:34 | 12.88045 | 100.46779 | 21776 ft | 408 kts | 1° |
| 2026-05-05 06:34 | 12.90833 | 100.46849 | 21255 ft | 404 kts | 1° |
| 2026-05-05 06:35 | 12.93631 | 100.46918 | 20734 ft | 400 kts | 1° |
| 2026-05-05 06:35 | 12.96400 | 100.46988 | 20222 ft | 397 kts | 1° |
| 2026-05-05 06:35 | 12.99149 | 100.47058 | 19710 ft | 394 kts | 1° |
| 2026-05-05 06:35 | 13.01880 | 100.47127 | 19199 ft | 391 kts | 1° |
| 2026-05-05 06:36 | 13.04591 | 100.47196 | 18707 ft | 389 kts | 1° |
| 2026-05-05 06:36 | 13.07273 | 100.47307 | 18182 ft | 381 kts | 7° |
| 2026-05-05 06:36 | 13.09792 | 100.48070 | 17654 ft | 378 kts | 27° |
| 2026-05-05 06:36 | 13.11954 | 100.49543 | 17181 ft | 369 kts | 36° |
| 2026-05-05 06:37 | 13.14020 | 100.51089 | 16716 ft | 366 kts | 36° |
| 2026-05-05 06:37 | 13.16078 | 100.52608 | 16259 ft | 363 kts | 36° |
| 2026-05-05 06:37 | 13.18130 | 100.54110 | 15811 ft | 360 kts | 36° |
| 2026-05-05 06:37 | 13.20167 | 100.55594 | 15369 ft | 358 kts | 36° |
| 2026-05-05 06:38 | 13.22189 | 100.57062 | 14932 ft | 355 kts | 36° |
| 2026-05-05 06:38 | 13.24201 | 100.58519 | 14472 ft | 353 kts | 36° |
| 2026-05-05 06:38 | 13.26203 | 100.59968 | 14055 ft | 351 kts | 36° |
| 2026-05-05 06:38 | 13.28185 | 100.61401 | 13801 ft | 343 kts | 36° |
| 2026-05-05 06:39 | 13.30118 | 100.62797 | 13616 ft | 336 kts | 36° |
| 2026-05-05 06:39 | 13.32034 | 100.64180 | 13434 ft | 336 kts | 36° |
| 2026-05-05 06:39 | 13.33929 | 100.65549 | 13258 ft | 339 kts | 36° |
| 2026-05-05 06:39 | 13.35864 | 100.66950 | 13101 ft | 340 kts | 36° |
| 2026-05-05 06:40 | 13.37800 | 100.68349 | 12933 ft | 340 kts | 36° |
| 2026-05-05 06:40 | 13.39733 | 100.69744 | 12759 ft | 339 kts | 36° |
| 2026-05-05 06:40 | 13.41658 | 100.71136 | 12595 ft | 338 kts | 36° |
| 2026-05-05 06:40 | 13.43575 | 100.72524 | 12436 ft | 336 kts | 36° |
| 2026-05-05 06:41 | 13.45482 | 100.73905 | 12211 ft | 335 kts | 36° |
| 2026-05-05 06:41 | 13.47384 | 100.75284 | 11764 ft | 333 kts | 36° |
| 2026-05-05 06:41 | 13.49266 | 100.76650 | 11412 ft | 329 kts | 36° |
| 2026-05-05 06:41 | 13.51106 | 100.77982 | 11305 ft | 316 kts | 36° |
| 2026-05-05 06:42 | 13.52870 | 100.79259 | 11200 ft | 305 kts | 37° |
| 2026-05-05 06:42 | 13.54574 | 100.80491 | 11032 ft | 293 kts | 34° |
| 2026-05-05 06:42 | 13.56386 | 100.81373 | 10680 ft | 290 kts | 17° |
| 2026-05-05 06:42 | 13.58340 | 100.81835 | 10419 ft | 286 kts | 15° |
| 2026-05-05 06:43 | 13.60261 | 100.82327 | 10123 ft | 283 kts | 15° |
| 2026-05-05 06:43 | 13.62162 | 100.82838 | 9810 ft | 282 kts | 16° |
| 2026-05-05 06:43 | 13.64064 | 100.83356 | 9443 ft | 283 kts | 16° |
| 2026-05-05 06:43 | 13.65956 | 100.83873 | 9118 ft | 281 kts | 16° |
| 2026-05-05 06:44 | 13.67840 | 100.84387 | 8807 ft | 279 kts | 16° |
| 2026-05-05 06:44 | 13.69717 | 100.84901 | 8461 ft | 278 kts | 16° |
| 2026-05-05 06:44 | 13.71583 | 100.85411 | 8147 ft | 277 kts | 16° |
| 2026-05-05 06:44 | 13.73422 | 100.85916 | 7853 ft | 276 kts | 16° |
| 2026-05-05 06:45 | 13.75275 | 100.86425 | 7586 ft | 275 kts | 16° |
| 2026-05-05 06:45 | 13.77122 | 100.86930 | 7285 ft | 274 kts | 16° |
| 2026-05-05 06:45 | 13.78961 | 100.87436 | 6989 ft | 273 kts | 16° |
| 2026-05-05 06:45 | 13.80797 | 100.87939 | 6692 ft | 272 kts | 16° |
| 2026-05-05 06:46 | 13.82620 | 100.88440 | 6427 ft | 271 kts | 16° |
| 2026-05-05 06:46 | 13.84441 | 100.88939 | 6129 ft | 270 kts | 16° |
| 2026-05-05 06:46 | 13.86255 | 100.89434 | 5820 ft | 269 kts | 16° |
| 2026-05-05 06:46 | 13.88058 | 100.89917 | 5498 ft | 264 kts | 12° |
| 2026-05-05 06:47 | 13.89877 | 100.89862 | 5012 ft | 268 kts | 341° |
| 2026-05-05 06:47 | 13.91410 | 100.88824 | 4752 ft | 266 kts | 311° |
| 2026-05-05 06:47 | 13.92337 | 100.87201 | 4495 ft | 261 kts | 289° |
| 2026-05-05 06:47 | 13.92767 | 100.85420 | 4247 ft | 252 kts | 275° |
| 2026-05-05 06:48 | 13.92498 | 100.83681 | 4040 ft | 245 kts | 243° |
| 2026-05-05 06:48 | 13.91445 | 100.82349 | 3824 ft | 240 kts | 217° |
| 2026-05-05 06:48 | 13.89999 | 100.81544 | 3597 ft | 235 kts | 196° |
| 2026-05-05 06:48 | 13.88446 | 100.81148 | 3361 ft | 233 kts | 192° |
| 2026-05-05 06:49 | 13.86875 | 100.80765 | 3149 ft | 232 kts | 193° |
| 2026-05-05 06:49 | 13.85324 | 100.80368 | 2843 ft | 226 kts | 193° |
| 2026-05-05 06:49 | 13.83865 | 100.79984 | 2702 ft | 207 kts | 193° |
| 2026-05-05 06:49 | 13.82506 | 100.79625 | 2410 ft | 194 kts | 194° |
| 2026-05-05 06:50 | 13.81248 | 100.79294 | 2261 ft | 180 kts | 193° |
| 2026-05-05 06:50 | 13.80068 | 100.78981 | 2070 ft | 172 kts | 194° |
| 2026-05-05 06:50 | 13.78921 | 100.78678 | 1870 ft | 166 kts | 193° |
| 2026-05-05 06:50 | 13.77863 | 100.78398 | 1707 ft | 149 kts | 192° |
| 2026-05-05 06:51 | 13.77214 | 100.78233 | 1596 ft | 142 kts | 194° |
| 2026-05-05 06:51 | 13.76290 | 100.77984 | 1435 ft | 135 kts | 194° |
| 2026-05-05 06:51 | 13.75362 | 100.77737 | 1250 ft | 138 kts | 193° |
| 2026-05-05 06:51 | 13.74433 | 100.77493 | 1072 ft | 138 kts | 193° |
| 2026-05-05 06:52 | 13.73509 | 100.77248 | 900 ft | 138 kts | 193° |
| 2026-05-05 06:52 | 13.72577 | 100.76999 | 742 ft | 140 kts | 193° |
| 2026-05-05 06:52 | 13.71629 | 100.76751 | 545 ft | 137 kts | 193° |
| 2026-05-05 06:52 | 13.70714 | 100.76508 | 377 ft | 138 kts | 193° |
| 2026-05-05 06:53 | 13.69775 | 100.76259 | 176 ft | 138 kts | 193° |
| 2026-05-05 06:53 | 13.68861 | 100.76020 | 29 ft | 129 kts | 192° |
| 2026-05-05 06:53 | 13.68090 | 100.75822 | 17 ft | 98 kts | 194° |
| 2026-05-05 06:53 | 13.67571 | 100.75685 | 16 ft | 55 kts | 194° |
| 2026-05-05 06:54 | 13.67313 | 100.75609 | 18 ft | 29 kts | 201° |
| 2026-05-05 06:54 | 13.67146 | 100.75500 | 19 ft | 28 kts | 221° |
| 2026-05-05 06:54 | 13.67104 | 100.75393 | 17 ft | 13 kts | 311° |
| 2026-05-05 06:54 | 13.67186 | 100.75391 | 17 ft | 13 kts | 13° |
| 2026-05-05 06:55 | 13.67271 | 100.75413 | 17 ft | 12 kts | 14° |
| 2026-05-05 06:55 | 13.67354 | 100.75436 | 17 ft | 12 kts | 14° |
| 2026-05-05 06:55 | 13.67438 | 100.75458 | 17 ft | 12 kts | 14° |
| 2026-05-05 06:55 | 13.67523 | 100.75481 | 17 ft | 12 kts | 14° |
| 2026-05-05 06:56 | 13.67607 | 100.75502 | 17 ft | 12 kts | 14° |
| 2026-05-05 06:56 | 13.67691 | 100.75524 | 17 ft | 12 kts | 14° |
| 2026-05-05 06:56 | 13.67775 | 100.75546 | 17 ft | 12 kts | 14° |
| 2026-05-05 06:56 | 13.67860 | 100.75569 | 17 ft | 12 kts | 14° |
| 2026-05-05 06:57 | 13.67943 | 100.75591 | 17 ft | 12 kts | 15° |
| 2026-05-05 06:57 | 13.68027 | 100.75614 | 17 ft | 12 kts | 15° |
| 2026-05-05 06:57 | 13.68111 | 100.75636 | 17 ft | 12 kts | 13° |
| 2026-05-05 06:57 | 13.68196 | 100.75657 | 17 ft | 13 kts | 14° |
| 2026-05-05 06:58 | 13.68280 | 100.75679 | 18 ft | 13 kts | 14° |
| 2026-05-05 06:58 | 13.68371 | 100.75703 | 18 ft | 14 kts | 14° |
| 2026-05-05 06:58 | 13.68475 | 100.75731 | 18 ft | 17 kts | 15° |
| 2026-05-05 06:58 | 13.68589 | 100.75760 | 18 ft | 17 kts | 14° |
| 2026-05-05 06:59 | 13.68709 | 100.75792 | 18 ft | 19 kts | 14° |
| 2026-05-05 06:59 | 13.68842 | 100.75828 | 18 ft | 21 kts | 14° |
| 2026-05-05 06:59 | 13.68973 | 100.75861 | 18 ft | 17 kts | 14° |
| 2026-05-05 06:59 | 13.69060 | 100.75884 | 18 ft | 10 kts | 14° |
| 2026-05-05 07:00 | 13.69098 | 100.75875 | 18 ft | 5 kts | 320° |
| 2026-05-05 07:00 | 13.69116 | 100.75821 | 18 ft | 11 kts | 285° |
| 2026-05-05 07:00 | 13.69140 | 100.75728 | 17 ft | 13 kts | 284° |
| 2026-05-05 07:00 | 13.69146 | 100.75703 | 17 ft | 0 kts | 278° |
| 2026-05-05 07:01 | 13.69146 | 100.75699 | 17 ft | 2 kts | 273° |
| 2026-05-05 07:01 | 13.69137 | 100.75691 | 17 ft | 2 kts | 214° |
| 2026-05-05 07:01 | 13.69119 | 100.75685 | 17 ft | 4 kts | 197° |
| 2026-05-05 07:01 | 13.69087 | 100.75677 | 17 ft | 4 kts | 194° |
| 2026-05-05 07:02 | 13.69077 | 100.75674 | 17 ft | 1 kts | 194° |
| 2026-05-05 07:02 | 13.69071 | 100.75672 | 17 ft | 0 kts | 194° |
| 2026-05-05 07:02 | 13.69070 | 100.75672 | 17 ft | 0 kts | 194° |